Impacts METAR Board
IDs:

KCLE - Cleveland/Hopkins In, OH, US

Updated at: 1200 UTC 15 Dec 2018
Potential Impact None Slight Moderate High
Time 15/00Z 15/01Z 15/02Z 15/03Z 15/04Z 15/05Z 15/06Z 15/07Z 15/08Z 15/09Z 15/10Z 15/11Z 15/12Z
Temp50 45 43 43 42 42 43 44 41 41 42 41 41
Dewpt36 37 37 38 38 38 38 38 37 38 39 39 40
Altim30.18 30.21 30.20 30.19 30.18 30.16 30.15 30.11 30.16 30.18 30.14 30.13 30.15
VIS10 10 10 10 8 9 10 10 8 5 6 4 4
CIG250 250 200 200 200 200 200 190 190 190 200 4 2
CoverBKNBKNOVCOVCOVCOVCOVCOVCOVCOVCOVCOVCOVC
FltCatVFRVFRVFRVFRVFRVFRVFRVFRVFRMVFRVFRLIFRLIFR
WX------------------BRBRBRBR
WDir0360305015040902035010204030
WSpd0 9 7 4 3 4 4 5 3 5 10 12 7
WGst-- -- -- -- -- -- -- -- -- -- -- -- --
Raw hourly METARs
KCLE 142351Z 00000KT 10SM BKN250 10/02 A3018 RMK AO2 SLP223 T01000022 10133 20083 55000
KCLE 150051Z 36009KT 10SM BKN250 07/03 A3021 RMK AO2 SLP233 T00720028
KCLE 150151Z 03007KT 10SM OVC200 06/03 A3020 RMK AO2 SLP233 T00610028
KCLE 150251Z 05004KT 10SM OVC200 06/03 A3019 RMK AO2 SLP227 T00610033 50005
KCLE 150351Z 15003KT 8SM OVC200 06/03 A3018 RMK AO2 SLP222 T00560033
KCLE 150451Z 04004KT 9SM OVC200 06/03 A3016 RMK AO2 SLP214 T00560033 401330050
KCLE 150551Z 09004KT 10SM OVC200 06/03 A3015 RMK AO2 SLP211 T00610033 10094 20050 56015
KCLE 150651Z 02005KT 10SM OVC190 07/03 A3011 RMK AO2 SLP197 T00670033
KCLE 150751Z 35003KT 8SM OVC190 05/03 A3016 RMK AO2 SLP215 T00500028
KCLE 150851Z 01005KT 5SM BR OVC190 05/03 A3018 RMK AO2 SLP222 T00500033 53011
KCLE 150951Z 02010KT 6SM BR OVC200 06/04 A3014 RMK AO2 SLP210 T00560039
KCLE 151051Z 04012KT 4SM BR OVC004 05/04 A3013 RMK AO2 SLP204 T00500039
KCLE 151151Z 03007KT 4SM BR OVC002 05/04 A3015 RMK AO2 SLP215 T00500044 10067 20050 53004



Page loaded:  12:46 UTC  |   04:46 AM Pacific  |   05:46 AM Mountain  |   06:46 AM Central  |   07:46 AM Eastern

 

ADVISORIES

FORECASTS

FORECASTS

OBSERVATIONS

USER TOOLS

ABOUT US